| time (UTC) | temp F | wind direction | speed knots | gust knots | rain 1hr in | rain 24hr in | rain mn in | humidity % | barometer mb |
| 20260502162201 | 64 | 288 | 0.9 | 3.5 | 0.00 | 0.00 | 0.00 | 30 | 1019.4 |
| 20260502162001 | 64 | 288 | 0.9 | 3.5 | 0.00 | 0.00 | 0.00 | 31 | 1019.5 |
| 20260502161801 | 64 | 287 | 1.7 | 3.5 | 0.00 | 0.00 | 0.00 | 31 | 1019.4 |
| 20260502161601 | 64 | 287 | 1.7 | 2.6 | 0.00 | 0.00 | 0.00 | 31 | 1019.4 |
| 20260502161402 | 64 | 287 | 0.9 | 3.5 | 0.00 | 0.00 | 0.00 | 32 | 1019.4 |
| 20260502161203 | 64 | 287 | 0.9 | 3.5 | 0.00 | 0.00 | 0.00 | 33 | 1019.4 |
| 20260502161001 | 64 | 287 | 0.9 | 3.5 | 0.00 | 0.00 | 0.00 | 34 | 1019.4 |
| 20260502160601 | 63 | 287 | 1.7 | 3.5 | 0.00 | 0.00 | 0.00 | 33 | 1019.4 |
| 20260502160401 | 63 | 269 | 0.9 | 2.6 | 0.00 | 0.00 | 0.00 | 34 | 1019.4 |
| 20260502160200 | 63 | 269 | 0.9 | 2.6 | 0.00 | 0.00 | 0.00 | 34 | 1019.5 |
| 20260502152200 | 59 | 277 | 0.0 | 1.7 | 0.00 | 0.00 | 0.00 | 33 | 1019.6 |
| 20260502151201 | 59 | 343 | 0.9 | 2.6 | 0.00 | 0.00 | 0.00 | 32 | 1019.6 |
| 20260502151000 | 59 | 291 | 0.0 | 1.7 | 0.00 | 0.00 | 0.00 | 32 | 1019.6 |
| 20260502150600 | 59 | 290 | 0.0 | 1.7 | 0.00 | 0.00 | 0.00 | 33 | 1019.6 |
| 20260502150359 | 59 | 290 | 0.0 | 1.7 | 0.00 | 0.00 | 0.00 | 32 | 1019.6 |
| 20260502150200 | 59 | 290 | 0.9 | 1.7 | 0.00 | 0.00 | 0.00 | 32 | 1019.6 |
| 20260502130601 | 44 | 93 | 0.0 | 0.0 | 0.00 | 0.00 | 0.00 | 54 | 1019.2 |
| 20260502130202 | 44 | 93 | 0.0 | 0.0 | 0.00 | 0.00 | 0.00 | 54 | 1019.2 |
| 20260502123601 | 45 | 93 | 0.0 | 0.0 | 0.00 | 0.00 | 0.00 | 51 | 1019.1 |
| 20260502123201 | 45 | 93 | 0.0 | 0.0 | 0.00 | 0.00 | 0.00 | 51 | 1019.0 |
| 20260502123000 | 45 | 93 | 0.0 | 0.0 | 0.00 | 0.00 | 0.00 | 51 | 1019.0 |
| 20260502122801 | 45 | 93 | 0.0 | 0.0 | 0.00 | 0.00 | 0.00 | 51 | 1019.0 |
| 20260502122600 | 45 | 93 | 0.0 | 0.0 | 0.00 | 0.00 | 0.00 | 52 | 1019.0 |
| 20260502122402 | 45 | 93 | 0.0 | 0.0 | 0.00 | 0.00 | 0.00 | 51 | 1018.9 |
| 20260502122159 | 45 | 93 | 0.0 | 0.0 | 0.00 | 0.00 | 0.00 | 51 | 1019.0 |
| 20260502122000 | 45 | 93 | 0.0 | 0.0 | 0.00 | 0.00 | 0.00 | 52 | 1019.0 |
| 20260502121800 | 45 | 93 | 0.0 | 0.0 | 0.00 | 0.00 | 0.00 | 52 | 1019.0 |
| 20260502121400 | 45 | 93 | 0.0 | 0.0 | 0.00 | 0.00 | 0.00 | 51 | 1019.0 |
| 20260502121200 | 45 | 93 | 0.0 | 0.0 | 0.00 | 0.00 | 0.00 | 51 | 1019.0 |
| 20260502121000 | 45 | 93 | 0.0 | 0.0 | 0.00 | 0.00 | 0.00 | 51 | 1018.9 |
| 20260502120800 | 45 | 93 | 0.0 | 0.0 | 0.00 | 0.00 | 0.00 | 51 | 1018.9 |
| 20260502120600 | 45 | 93 | 0.0 | 0.0 | 0.00 | 0.00 | 0.00 | 51 | 1018.9 |
| 20260502120159 | 45 | 93 | 0.0 | 0.0 | 0.00 | 0.00 | 0.00 | 51 | 1018.9 |
| 20260502115759 | 45 | 93 | 0.0 | 0.0 | 0.00 | 0.00 | 0.00 | 51 | 1018.9 |
| 20260502115559 | 45 | 93 | 0.0 | 0.0 | 0.00 | 0.00 | 0.00 | 51 | 1018.9 |
| 20260502115400 | 45 | 93 | 0.0 | 0.0 | 0.00 | 0.00 | 0.00 | 51 | 1018.8 |
| 20260502115201 | 45 | 93 | 0.0 | 0.0 | 0.00 | 0.00 | 0.00 | 51 | 1018.9 |
| 20260502114800 | 45 | 93 | 0.0 | 1.7 | 0.00 | 0.00 | 0.00 | 52 | 1018.9 |
| 20260502114600 | 45 | 93 | 0.0 | 2.6 | 0.00 | 0.00 | 0.00 | 52 | 1018.9 |
| 20260502114400 | 45 | 93 | 0.0 | 2.6 | 0.00 | 0.00 | 0.00 | 52 | 1019.0 |
| 20260502114201 | 45 | 93 | 0.9 | 2.6 | 0.00 | 0.00 | 0.00 | 52 | 1018.9 |
| 20260502114000 | 45 | 93 | 0.9 | 2.6 | 0.00 | 0.00 | 0.00 | 52 | 1019.0 |
| 20260502113850 | 45 | 93 | 0.9 | 3.5 | 0.00 | 0.00 | 0.00 | 52 | 1018.9 |
| 20260502113001 | 45 | 93 | 1.7 | 2.6 | 0.00 | 0.00 | 0.00 | 52 | 1019.0 |
| 20260502112801 | 45 | 93 | 1.7 | 2.6 | 0.00 | 0.00 | 0.00 | 53 | 1019.0 |
| 20260502112600 | 45 | 112 | 0.9 | 1.7 | 0.00 | 0.00 | 0.00 | 53 | 1019.0 |
| 20260502112401 | 45 | 112 | 0.9 | 2.6 | 0.00 | 0.00 | 0.00 | 53 | 1019.0 |
| 20260502112202 | 45 | 112 | 0.9 | 2.6 | 0.00 | 0.00 | 0.00 | 53 | 1019.0 |
| 20260502112001 | 45 | 112 | 0.9 | 2.6 | 0.00 | 0.00 | 0.00 | 53 | 1019.0 |
| 20260502111801 | 45 | 112 | 1.7 | 2.6 | 0.00 | 0.00 | 0.00 | 53 | 1019.0 |
| 20260502111601 | 46 | 112 | 1.7 | 2.6 | 0.00 | 0.00 | 0.00 | 53 | 1019.0 |
| 20260502111001 | 46 | 70 | 0.9 | 1.7 | 0.00 | 0.00 | 0.00 | 51 | 1019.0 |
| 20260502110801 | 46 | 70 | 0.0 | 1.7 | 0.00 | 0.00 | 0.00 | 51 | 1019.0 |
| 20260502110601 | 46 | 70 | 0.0 | 0.0 | 0.00 | 0.00 | 0.00 | 51 | 1019.0 |
| 20260502110201 | 47 | 70 | 0.0 | 0.0 | 0.00 | 0.00 | 0.00 | 51 | 1019.0 |
| 20260502110002 | 47 | 70 | 0.0 | 0.0 | 0.00 | 0.00 | 0.00 | 51 | 1019.0 |
| 20260502105802 | 47 | 70 | 0.0 | 0.0 | 0.00 | 0.00 | 0.00 | 51 | 1019.1 |
| 20260502105601 | 47 | 70 | 0.0 | 0.0 | 0.00 | 0.00 | 0.00 | 52 | 1019.0 |
| 20260502105402 | 47 | 70 | 0.0 | 0.0 | 0.00 | 0.00 | 0.00 | 51 | 1019.1 |
| 20260502105200 | 48 | 70 | 0.0 | 0.0 | 0.00 | 0.00 | 0.00 | 50 | 1019.0 |
| 20260502105002 | 48 | 70 | 0.0 | 0.0 | 0.00 | 0.00 | 0.00 | 50 | 1019.0 |
| 20260502104601 | 48 | 70 | 0.0 | 0.0 | 0.00 | 0.00 | 0.00 | 51 | 1019.0 |
| 20260502104401 | 48 | 70 | 0.0 | 0.0 | 0.00 | 0.00 | 0.00 | 51 | 1019.0 |
| 20260502104000 | 48 | 70 | 0.0 | 0.0 | 0.00 | 0.00 | 0.00 | 53 | 1018.9 |
| 20260502103801 | 48 | 70 | 0.0 | 0.0 | 0.00 | 0.00 | 0.00 | 53 | 1019.0 |
| 20260502103402 | 48 | 70 | 0.0 | 0.0 | 0.00 | 0.00 | 0.00 | 54 | 1019.0 |
| 20260502103201 | 48 | 70 | 0.0 | 0.0 | 0.00 | 0.00 | 0.00 | 54 | 1019.0 |
| 20260502103001 | 48 | 70 | 0.0 | 0.0 | 0.00 | 0.00 | 0.00 | 55 | 1019.0 |
| 20260502102601 | 48 | 70 | 0.0 | 0.0 | 0.00 | 0.00 | 0.00 | 55 | 1019.0 |
| 20260502102400 | 48 | 70 | 0.0 | 0.0 | 0.00 | 0.00 | 0.00 | 55 | 1019.0 |
| 20260502102201 | 48 | 70 | 0.0 | 0.0 | 0.00 | 0.00 | 0.00 | 55 | 1019.0 |
| 20260502102000 | 48 | 70 | 0.0 | 0.0 | 0.00 | 0.00 | 0.00 | 55 | 1018.9 |
| 20260502101801 | 48 | 70 | 0.0 | 0.9 | 0.00 | 0.00 | 0.00 | 54 | 1019.0 |
| 20260502101402 | 48 | 70 | 0.0 | 2.6 | 0.00 | 0.00 | 0.00 | 54 | 1018.8 |
| 20260502101201 | 48 | 70 | 0.0 | 2.6 | 0.00 | 0.00 | 0.00 | 54 | 1018.8 |
| 20260502101002 | 48 | 70 | 0.0 | 2.6 | 0.00 | 0.00 | 0.00 | 54 | 1018.8 |
| 20260502100802 | 48 | 70 | 0.9 | 2.6 | 0.00 | 0.00 | 0.00 | 54 | 1018.8 |
| 20260502100602 | 48 | 70 | 0.9 | 3.5 | 0.00 | 0.00 | 0.00 | 54 | 1018.8 |
| 20260502100402 | 48 | 70 | 0.9 | 3.5 | 0.00 | 0.00 | 0.00 | 54 | 1018.8 |
| 20260502100202 | 48 | 70 | 0.9 | 3.5 | 0.00 | 0.00 | 0.00 | 54 | 1018.8 |
| 20260502091359 | 47 | 360 | 0.0 | 1.7 | 0.00 | 0.00 | 0.00 | 57 | 1018.9 |
| 20260502091200 | 47 | 360 | 0.0 | 1.7 | 0.00 | 0.00 | 0.00 | 57 | 1018.8 |
| 20260502091000 | 47 | 360 | 0.0 | 1.7 | 0.00 | 0.00 | 0.00 | 57 | 1018.8 |
| 20260502090800 | 46 | 360 | 0.0 | 2.6 | 0.00 | 0.00 | 0.00 | 57 | 1018.9 |
| 20260502090600 | 46 | 360 | 0.9 | 2.6 | 0.00 | 0.00 | 0.00 | 57 | 1018.8 |
| 20260502090359 | 46 | 355 | 0.9 | 2.6 | 0.00 | 0.00 | 0.00 | 57 | 1018.8 |
| 20260502090159 | 46 | 355 | 0.0 | 2.6 | 0.00 | 0.00 | 0.00 | 57 | 1018.8 |
| 20260502071201 | 48 | 265 | 0.0 | 0.0 | 0.00 | 0.00 | 0.00 | 56 | 1018.6 |
| 20260502071001 | 48 | 265 | 0.0 | 0.0 | 0.00 | 0.00 | 0.00 | 56 | 1018.5 |
| 20260502070801 | 47 | 265 | 0.0 | 0.0 | 0.00 | 0.00 | 0.00 | 56 | 1018.5 |
| 20260502070601 | 47 | 265 | 0.0 | 0.0 | 0.00 | 0.00 | 0.00 | 56 | 1018.5 |
| 20260502070202 | 47 | 265 | 0.0 | 0.0 | 0.00 | 0.00 | 0.00 | 57 | 1018.6 |
| 20260502065801 | 47 | 265 | 0.0 | 0.0 | 0.00 | 0.00 | 0.00 | 57 | 1018.6 |
| 20260502065603 | 47 | 265 | 0.0 | 0.0 | 0.00 | 0.00 | 0.00 | 58 | 1018.6 |
| 20260502065403 | 47 | 265 | 0.0 | 0.0 | 0.00 | 0.00 | 0.00 | 57 | 1018.6 |
| 20260502065202 | 47 | 265 | 0.0 | 0.0 | 0.00 | 0.00 | 0.00 | 58 | 1018.6 |
| 20260502065002 | 47 | 265 | 0.0 | 0.0 | 0.00 | 0.00 | 0.00 | 58 | 1018.7 |
| 20260502064802 | 47 | 265 | 0.0 | 0.0 | 0.00 | 0.00 | 0.00 | 57 | 1018.7 |
| 20260502064601 | 47 | 265 | 0.0 | 0.0 | 0.00 | 0.00 | 0.00 | 58 | 1018.7 |
| 20260502064402 | 47 | 265 | 0.0 | 0.0 | 0.00 | 0.00 | 0.00 | 58 | 1018.7 |
| 20260502064203 | 47 | 265 | 0.0 | 0.0 | 0.00 | 0.00 | 0.00 | 57 | 1018.7 |
| 20260502064002 | 48 | 265 | 0.0 | 0.0 | 0.00 | 0.00 | 0.00 | 57 | 1018.7 |
| 20260502063803 | 48 | 265 | 0.0 | 0.0 | 0.00 | 0.00 | 0.00 | 57 | 1018.7 |
| 20260502063601 | 48 | 265 | 0.0 | 0.0 | 0.00 | 0.00 | 0.00 | 57 | 1018.7 |
| 20260502063402 | 48 | 265 | 0.0 | 0.0 | 0.00 | 0.00 | 0.00 | 57 | 1018.7 |
| 20260502063202 | 48 | 265 | 0.0 | 0.0 | 0.00 | 0.00 | 0.00 | 58 | 1018.7 |
| 20260502063002 | 48 | 265 | 0.0 | 0.0 | 0.00 | 0.00 | 0.00 | 58 | 1018.7 |
| 20260502062802 | 48 | 265 | 0.0 | 0.0 | 0.00 | 0.00 | 0.00 | 58 | 1018.7 |
| 20260502062402 | 48 | 265 | 0.0 | 0.0 | 0.00 | 0.00 | 0.00 | 57 | 1018.8 |
| 20260502062003 | 48 | 265 | 0.0 | 1.7 | 0.00 | 0.00 | 0.00 | 57 | 1018.8 |
| 20260502061802 | 48 | 265 | 0.0 | 1.7 | 0.00 | 0.00 | 0.00 | 57 | 1018.7 |
| 20260502061403 | 49 | 265 | 0.9 | 2.6 | 0.00 | 0.00 | 0.00 | 57 | 1018.8 |
| 20260502060802 | 49 | 265 | 0.0 | 0.0 | 0.00 | 0.00 | 0.00 | 53 | 1018.7 |
| 20260502060602 | 49 | 265 | 0.0 | 0.0 | 0.00 | 0.00 | 0.00 | 54 | 1018.7 |
| 20260502060402 | 49 | 265 | 0.0 | 0.0 | 0.00 | 0.00 | 0.00 | 54 | 1018.7 |
| 20260502060202 | 49 | 265 | 0.0 | 0.0 | 0.00 | 0.00 | 0.00 | 54 | 1018.7 |
| 20260502060006 | 49 | 265 | 0.0 | 0.0 | 0.00 | 0.00 | 0.00 | 54 | 1018.6 |
| 20260502055803 | 49 | 265 | 0.0 | 0.0 | 0.00 | 0.00 | 0.00 | 54 | 1018.6 |
| 20260502055603 | 49 | 265 | 0.0 | 0.0 | 0.00 | 0.00 | 0.00 | 54 | 1018.6 |
| 20260502055403 | 49 | 265 | 0.0 | 0.0 | 0.00 | 0.00 | 0.00 | 54 | 1018.5 |
| 20260502055002 | 49 | 265 | 0.0 | 0.0 | 0.00 | 0.00 | 0.00 | 54 | 1018.5 |
| 20260502054803 | 50 | 265 | 0.0 | 0.0 | 0.00 | 0.00 | 0.00 | 53 | 1018.6 |
| 20260502054603 | 50 | 265 | 0.0 | 0.0 | 0.00 | 0.00 | 0.00 | 54 | 1018.5 |
| 20260502054404 | 50 | 265 | 0.0 | 0.0 | 0.00 | 0.00 | 0.00 | 53 | 1018.5 |
| 20260502054204 | 50 | 265 | 0.0 | 0.0 | 0.00 | 0.00 | 0.00 | 54 | 1018.5 |
| 20260502054004 | 50 | 265 | 0.0 | 0.0 | 0.00 | 0.00 | 0.00 | 53 | 1018.4 |
| 20260502053803 | 50 | 265 | 0.0 | 0.0 | 0.00 | 0.00 | 0.00 | 52 | 1018.4 |
| 20260502053603 | 50 | 265 | 0.0 | 0.0 | 0.00 | 0.00 | 0.00 | 52 | 1018.4 |
| 20260502053402 | 51 | 265 | 0.0 | 0.0 | 0.00 | 0.00 | 0.00 | 52 | 1018.4 |
| 20260502053203 | 51 | 265 | 0.0 | 0.0 | 0.00 | 0.00 | 0.00 | 51 | 1018.5 |
| 20260502053003 | 51 | 265 | 0.0 | 0.0 | 0.00 | 0.00 | 0.00 | 51 | 1018.5 |
| 20260502052603 | 51 | 265 | 0.0 | 0.0 | 0.00 | 0.00 | 0.00 | 51 | 1018.5 |
| 20260502052403 | 51 | 265 | 0.0 | 0.0 | 0.00 | 0.00 | 0.00 | 51 | 1018.5 |
| 20260502052203 | 52 | 265 | 0.0 | 0.0 | 0.00 | 0.00 | 0.00 | 51 | 1018.5 |
| 20260502052003 | 52 | 306 | 0.0 | 0.0 | 0.00 | 0.00 | 0.00 | 50 | 1018.5 |
| 20260502051803 | 52 | 306 | 0.0 | 0.0 | 0.00 | 0.00 | 0.00 | 50 | 1018.5 |
| 20260502051603 | 52 | 306 | 0.0 | 0.0 | 0.00 | 0.00 | 0.00 | 49 | 1018.5 |
| 20260502051203 | 52 | 306 | 0.0 | 0.0 | 0.00 | 0.00 | 0.00 | 50 | 1018.5 |
| 20260502051002 | 52 | 306 | 0.0 | 0.0 | 0.00 | 0.00 | 0.00 | 50 | 1018.5 |
| 20260502050802 | 52 | 306 | 0.0 | 0.0 | 0.00 | 0.00 | 0.00 | 50 | 1018.5 |
| 20260502050604 | 52 | 306 | 0.0 | 0.0 | 0.00 | 0.00 | 0.00 | 50 | 1018.5 |
| 20260502050404 | 52 | 306 | 0.0 | 0.0 | 0.00 | 0.00 | 0.00 | 50 | 1018.4 |
| 20260502050203 | 52 | 306 | 0.0 | 0.0 | 0.00 | 0.00 | 0.00 | 50 | 1018.5 |
| 20260502050004 | 52 | 306 | 0.0 | 0.0 | 0.00 | 0.00 | 0.00 | 50 | 1018.5 |
| 20260502045802 | 52 | 306 | 0.0 | 0.0 | 0.00 | 0.00 | 0.00 | 50 | 1018.5 |
| 20260502045602 | 52 | 306 | 0.0 | 0.9 | 0.00 | 0.00 | 0.00 | 50 | 1018.5 |
| 20260502045401 | 52 | 306 | 0.0 | 0.9 | 0.00 | 0.00 | 0.00 | 51 | 1018.4 |
| 20260502045002 | 52 | 306 | 0.0 | 0.9 | 0.00 | 0.00 | 0.00 | 50 | 1018.5 |
| 20260502044802 | 52 | 306 | 0.0 | 0.9 | 0.00 | 0.00 | 0.00 | 50 | 1018.4 |
| 20260502044602 | 52 | 306 | 0.0 | 0.9 | 0.00 | 0.00 | 0.00 | 49 | 1018.4 |
| 20260502044201 | 53 | 306 | 0.0 | 0.9 | 0.00 | 0.00 | 0.00 | 49 | 1018.4 |
| 20260502043803 | 53 | 306 | 0.0 | 0.9 | 0.00 | 0.00 | 0.00 | 49 | 1018.4 |
| 20260502043202 | 53 | 306 | 0.0 | 0.9 | 0.00 | 0.00 | 0.00 | 49 | 1018.4 |
| 20260502043003 | 53 | 306 | 0.0 | 0.9 | 0.00 | 0.00 | 0.00 | 48 | 1018.3 |
| 20260502042802 | 53 | 306 | 0.0 | 0.0 | 0.00 | 0.00 | 0.00 | 48 | 1018.3 |
| 20260502042602 | 53 | 306 | 0.0 | 0.0 | 0.00 | 0.00 | 0.00 | 48 | 1018.3 |
| 20260502042402 | 53 | 306 | 0.0 | 0.0 | 0.00 | 0.00 | 0.00 | 48 | 1018.3 |
| 20260502042003 | 53 | 306 | 0.0 | 0.0 | 0.00 | 0.00 | 0.00 | 47 | 1018.3 |
| 20260502041801 | 54 | 306 | 0.0 | 0.0 | 0.00 | 0.00 | 0.00 | 47 | 1018.3 |
| 20260502041401 | 54 | 306 | 0.0 | 0.0 | 0.00 | 0.00 | 0.00 | 47 | 1018.3 |
| 20260502041001 | 54 | 306 | 0.0 | 0.0 | 0.00 | 0.00 | 0.00 | 45 | 1018.3 |
| 20260502040603 | 54 | 306 | 0.0 | 0.0 | 0.00 | 0.00 | 0.00 | 45 | 1018.3 |
| 20260502040401 | 54 | 306 | 0.0 | 0.9 | 0.00 | 0.00 | 0.00 | 45 | 1018.2 |
| 20260502040202 | 55 | 306 | 0.0 | 1.7 | 0.00 | 0.00 | 0.00 | 45 | 1018.2 |
| 20260502040005 | 55 | 306 | 0.0 | 1.7 | 0.00 | 0.00 | 0.00 | 45 | 1018.2 |
| 20260502035802 | 55 | 306 | 0.0 | 1.7 | 0.00 | 0.00 | 0.00 | 45 | 1018.2 |
| 20260502035601 | 55 | 306 | 0.9 | 1.7 | 0.00 | 0.00 | 0.00 | 43 | 1018.1 |
| 20260502035402 | 55 | 306 | 0.9 | 0.9 | 0.00 | 0.00 | 0.00 | 44 | 1018.1 |
| 20260502035202 | 55 | 306 | 0.0 | 1.7 | 0.00 | 0.00 | 0.00 | 44 | 1018.2 |
| 20260502035002 | 55 | 306 | 0.0 | 1.7 | 0.00 | 0.00 | 0.00 | 44 | 1018.1 |
| 20260502034802 | 55 | 306 | 0.0 | 1.7 | 0.00 | 0.00 | 0.00 | 44 | 1018.1 |
| 20260502034602 | 55 | 306 | 0.0 | 1.7 | 0.00 | 0.00 | 0.00 | 45 | 1018.1 |
| 20260502034402 | 55 | 306 | 0.9 | 1.7 | 0.00 | 0.00 | 0.00 | 45 | 1018.1 |
| 20260502034201 | 55 | 306 | 0.9 | 0.9 | 0.00 | 0.00 | 0.00 | 44 | 1018.0 |
| 20260502034002 | 55 | 306 | 0.0 | 0.9 | 0.00 | 0.00 | 0.00 | 45 | 1018.0 |
| 20260502033802 | 55 | 306 | 0.0 | 0.0 | 0.00 | 0.00 | 0.00 | 45 | 1017.9 |
| 20260502033602 | 55 | 306 | 0.0 | 0.0 | 0.00 | 0.00 | 0.00 | 44 | 1017.9 |
| 20260502033402 | 55 | 306 | 0.0 | 0.9 | 0.00 | 0.00 | 0.00 | 45 | 1017.9 |
| 20260502033201 | 55 | 306 | 0.0 | 0.9 | 0.00 | 0.00 | 0.00 | 45 | 1017.9 |
| 20260502032802 | 55 | 306 | 0.0 | 0.9 | 0.00 | 0.00 | 0.00 | 45 | 1017.8 |
| 20260502032601 | 55 | 306 | 0.0 | 0.9 | 0.00 | 0.00 | 0.00 | 46 | 1017.8 |
| 20260502032402 | 55 | 306 | 0.0 | 0.9 | 0.00 | 0.00 | 0.00 | 46 | 1017.8 |
| 20260502032201 | 55 | 306 | 0.0 | 1.7 | 0.00 | 0.00 | 0.00 | 46 | 1017.8 |
| 20260502031801 | 55 | 306 | 0.0 | 1.7 | 0.00 | 0.00 | 0.00 | 47 | 1017.8 |
| 20260502031601 | 55 | 306 | 0.0 | 0.9 | 0.00 | 0.00 | 0.00 | 46 | 1017.7 |
| 20260502031402 | 55 | 306 | 0.0 | 0.9 | 0.00 | 0.00 | 0.00 | 46 | 1017.7 |
| 20260502031003 | 55 | 306 | 0.0 | 0.9 | 0.00 | 0.00 | 0.00 | 46 | 1017.6 |
| 20260502030801 | 56 | 306 | 0.0 | 0.9 | 0.00 | 0.00 | 0.00 | 46 | 1017.6 |
| 20260502030602 | 56 | 306 | 0.0 | 0.0 | 0.00 | 0.00 | 0.00 | 46 | 1017.5 |
| 20260502030402 | 56 | 306 | 0.0 | 0.0 | 0.00 | 0.00 | 0.00 | 46 | 1017.5 |
| 20260502030202 | 56 | 306 | 0.0 | 0.0 | 0.00 | 0.00 | 0.00 | 45 | 1017.5 |
| 20260502030002 | 56 | 306 | 0.0 | 0.0 | 0.00 | 0.00 | 0.00 | 45 | 1017.5 |
| 20260502025802 | 56 | 306 | 0.0 | 0.0 | 0.00 | 0.00 | 0.00 | 45 | 1017.4 |
| 20260502025602 | 56 | 306 | 0.0 | 0.0 | 0.00 | 0.00 | 0.00 | 44 | 1017.4 |
| 20260502025202 | 57 | 306 | 0.0 | 0.0 | 0.00 | 0.00 | 0.00 | 44 | 1017.4 |
| 20260502025002 | 57 | 306 | 0.0 | 0.0 | 0.00 | 0.00 | 0.00 | 44 | 1017.4 |
| 20260502024802 | 57 | 306 | 0.0 | 0.0 | 0.00 | 0.00 | 0.00 | 43 | 1017.4 |
| 20260502024402 | 57 | 306 | 0.0 | 1.7 | 0.00 | 0.00 | 0.00 | 44 | 1017.3 |
| 20260502024002 | 58 | 306 | 0.0 | 1.7 | 0.00 | 0.00 | 0.00 | 43 | 1017.3 |
| 20260502023802 | 58 | 306 | 0.0 | 0.9 | 0.00 | 0.00 | 0.00 | 43 | 1017.2 |
| 20260502023601 | 58 | 306 | 0.0 | 0.9 | 0.00 | 0.00 | 0.00 | 43 | 1017.3 |
| 20260502023402 | 58 | 306 | 0.0 | 0.9 | 0.00 | 0.00 | 0.00 | 43 | 1017.2 |
| 20260502023003 | 59 | 306 | 0.0 | 0.9 | 0.00 | 0.00 | 0.00 | 42 | 1017.3 |
| 20260502022802 | 59 | 306 | 0.0 | 1.7 | 0.00 | 0.00 | 0.00 | 42 | 1017.2 |
| 20260502022601 | 59 | 306 | 0.0 | 1.7 | 0.00 | 0.00 | 0.00 | 41 | 1017.2 |
| 20260502022402 | 59 | 306 | 0.0 | 1.7 | 0.00 | 0.00 | 0.00 | 41 | 1017.2 |
| 20260502022202 | 59 | 306 | 0.0 | 1.7 | 0.00 | 0.00 | 0.00 | 40 | 1017.1 |
| 20260502022001 | 60 | 306 | 0.9 | 1.7 | 0.00 | 0.00 | 0.00 | 40 | 1017.1 |
| 20260502021803 | 60 | 306 | 0.9 | 1.7 | 0.00 | 0.00 | 0.00 | 40 | 1017.1 |
| 20260502021601 | 60 | 307 | 0.9 | 1.7 | 0.00 | 0.00 | 0.00 | 40 | 1017.1 |
| 20260502021402 | 60 | 307 | 0.0 | 1.7 | 0.00 | 0.00 | 0.00 | 40 | 1017.1 |
| 20260502021202 | 61 | 307 | 0.9 | 1.7 | 0.00 | 0.00 | 0.00 | 39 | 1017.1 |
| 20260502021002 | 61 | 307 | 0.9 | 2.6 | 0.00 | 0.00 | 0.00 | 39 | 1017.1 |
| 20260502020801 | 61 | 308 | 0.9 | 2.6 | 0.00 | 0.00 | 0.00 | 39 | 1017.0 |
| 20260502020401 | 62 | 309 | 0.9 | 3.5 | 0.00 | 0.00 | 0.00 | 38 | 1017.0 |
| 20260502020202 | 62 | 294 | 0.0 | 5.2 | 0.00 | 0.00 | 0.00 | 37 | 1017.0 |
| 20260502020004 | 62 | 289 | 1.7 | 5.2 | 0.00 | 0.00 | 0.00 | 37 | 1017.0 |
| 20260502015802 | 62 | 298 | 1.7 | 7.0 | 0.00 | 0.00 | 0.00 | 36 | 1016.9 |
| 20260502015602 | 63 | 288 | 2.6 | 7.0 | 0.00 | 0.00 | 0.00 | 36 | 1017.0 |
| 20260502015403 | 63 | 305 | 2.6 | 7.0 | 0.00 | 0.00 | 0.00 | 34 | 1017.0 |
| 20260502015203 | 63 | 290 | 3.5 | 7.0 | 0.00 | 0.00 | 0.00 | 34 | 1016.9 |
| 20260502015003 | 63 | 304 | 2.6 | 6.1 | 0.00 | 0.00 | 0.00 | 34 | 1016.9 |
| 20260502014603 | 64 | 319 | 2.6 | 5.2 | 0.00 | 0.00 | 0.00 | 34 | 1016.9 |
| 20260502014402 | 64 | 298 | 1.7 | 3.5 | 0.00 | 0.00 | 0.00 | 34 | 1016.9 |
| 20260502014203 | 64 | 273 | 1.7 | 3.5 | 0.00 | 0.00 | 0.00 | 33 | 1016.9 |
| 20260502013802 | 64 | 292 | 1.7 | 4.3 | 0.00 | 0.00 | 0.00 | 33 | 1016.9 |
| 20260502013603 | 64 | 279 | 1.7 | 4.3 | 0.00 | 0.00 | 0.00 | 32 | 1016.8 |
| 20260502013403 | 64 | 281 | 1.7 | 4.3 | 0.00 | 0.00 | 0.00 | 31 | 1016.8 |
| 20260502013003 | 65 | 274 | 1.7 | 5.2 | 0.00 | 0.00 | 0.00 | 31 | 1016.8 |
| 20260502012803 | 65 | 272 | 2.6 | 7.0 | 0.00 | 0.00 | 0.00 | 32 | 1016.8 |
| 20260502012403 | 65 | 281 | 2.6 | 7.8 | 0.00 | 0.00 | 0.00 | 31 | 1016.8 |
| 20260502012202 | 65 | 280 | 2.6 | 7.8 | 0.00 | 0.00 | 0.00 | 31 | 1016.8 |
| 20260502011802 | 65 | 284 | 2.6 | 7.8 | 0.00 | 0.00 | 0.00 | 31 | 1016.8 |
| 20260502011603 | 65 | 263 | 3.5 | 7.8 | 0.00 | 0.00 | 0.00 | 31 | 1016.7 |
| 20260502011403 | 65 | 263 | 4.3 | 7.8 | 0.00 | 0.00 | 0.00 | 33 | 1016.6 |
| 20260502011202 | 66 | 290 | 4.3 | 7.0 | 0.00 | 0.00 | 0.00 | 33 | 1016.7 |
| 20260502010803 | 66 | 183 | 1.7 | 6.1 | 0.00 | 0.00 | 0.00 | 32 | 1016.7 |
| 20260502010603 | 66 | 223 | 1.7 | 6.1 | 0.00 | 0.00 | 0.00 | 32 | 1016.8 |
| 20260502010203 | 66 | 277 | 2.6 | 5.2 | 0.00 | 0.00 | 0.00 | 32 | 1016.7 |
| 20260502010005 | 66 | 265 | 3.5 | 7.8 | 0.00 | 0.00 | 0.00 | 32 | 1016.8 |
| 20260502005802 | 66 | 282 | 2.6 | 8.7 | 0.00 | 0.00 | 0.00 | 32 | 1016.7 |
| 20260502005602 | 66 | 307 | 2.6 | 8.7 | 0.00 | 0.00 | 0.00 | 31 | 1016.7 |
| 20260502005401 | 66 | 269 | 3.5 | 8.7 | 0.00 | 0.00 | 0.00 | 32 | 1016.7 |
| 20260502005201 | 66 | 270 | 3.5 | 8.7 | 0.00 | 0.00 | 0.00 | 32 | 1016.7 |
| 20260502005002 | 67 | 276 | 3.5 | 9.6 | 0.00 | 0.00 | 0.00 | 29 | 1016.8 |
| 20260502004802 | 67 | 284 | 2.6 | 9.6 | 0.00 | 0.00 | 0.00 | 28 | 1016.7 |
| 20260502004601 | 67 | 302 | 3.5 | 9.6 | 0.00 | 0.00 | 0.00 | 29 | 1016.7 |
| 20260502004402 | 67 | 296 | 5.2 | 9.6 | 0.00 | 0.00 | 0.00 | 28 | 1016.7 |
| 20260502004003 | 67 | 302 | 3.5 | 7.8 | 0.00 | 0.00 | 0.00 | 27 | 1016.7 |
| 20260502003802 | 67 | 287 | 4.3 | 7.8 | 0.00 | 0.00 | 0.00 | 27 | 1016.7 |
| 20260502003602 | 67 | 287 | 4.3 | 7.8 | 0.00 | 0.00 | 0.00 | 27 | 1016.7 |
| 20260502003402 | 67 | 331 | 4.3 | 7.8 | 0.00 | 0.00 | 0.00 | 26 | 1016.6 |
| 20260502003201 | 67 | 284 | 3.5 | 7.8 | 0.00 | 0.00 | 0.00 | 27 | 1016.7 |
| 20260502003001 | 67 | 306 | 3.5 | 7.8 | 0.00 | 0.00 | 0.00 | 27 | 1016.7 |
| 20260502002603 | 67 | 268 | 3.5 | 8.7 | 0.00 | 0.00 | 0.00 | 26 | 1016.7 |
| 20260502002401 | 67 | 291 | 3.5 | 8.7 | 0.00 | 0.00 | 0.00 | 28 | 1016.8 |
| 20260502002203 | 67 | 331 | 4.3 | 8.7 | 0.00 | 0.00 | 0.00 | 27 | 1016.8 |
| 20260502002001 | 67 | 299 | 5.2 | 8.7 | 0.00 | 0.00 | 0.00 | 27 | 1016.8 |
| 20260502001802 | 68 | 282 | 4.3 | 7.8 | 0.00 | 0.00 | 0.00 | 27 | 1016.8 |
| 20260502001601 | 68 | 302 | 3.5 | 7.8 | 0.00 | 0.00 | 0.00 | 26 | 1016.8 |
| 20260502001403 | 68 | 309 | 2.6 | 7.8 | 0.00 | 0.00 | 0.00 | 26 | 1016.8 |
| 20260502001201 | 68 | 280 | 2.6 | 7.8 | 0.00 | 0.00 | 0.00 | 26 | 1016.8 |
| 20260502001002 | 67 | 262 | 2.6 | 7.8 | 0.00 | 0.00 | 0.00 | 26 | 1016.8 |
| 20260502000802 | 67 | 294 | 3.5 | 7.8 | 0.00 | 0.00 | 0.00 | 27 | 1016.8 |
| 20260502000602 | 67 | 301 | 3.5 | 9.6 | 0.00 | 0.00 | 0.00 | 26 | 1016.8 |
| 20260502000402 | 67 | 306 | 2.6 | 9.6 | 0.00 | 0.00 | 0.00 | 26 | 1016.9 |
| 20260502000203 | 67 | 45 | 3.5 | 9.6 | 0.00 | 0.00 | 0.00 | 25 | 1016.9 |
| 20260501235802 | 67 | 328 | 3.5 | 9.6 | 0.00 | 0.00 | 0.00 | 27 | 1016.9 |
| 20260501235601 | 67 | 326 | 3.5 | 7.8 | 0.00 | 0.00 | 0.00 | 28 | 1016.9 |
| 20260501234802 | 67 | 295 | 4.3 | 7.8 | 0.00 | 0.00 | 0.00 | 28 | 1016.8 |
| 20260501234601 | 67 | 292 | 3.5 | 8.7 | 0.00 | 0.00 | 0.00 | 27 | 1016.9 |
| 20260501234402 | 67 | 326 | 3.5 | 8.7 | 0.00 | 0.00 | 0.00 | 27 | 1016.9 |
| 20260501234201 | 67 | 296 | 3.5 | 8.7 | 0.00 | 0.00 | 0.00 | 27 | 1016.9 |
| 20260501233802 | 67 | 329 | 5.2 | 13.0 | 0.00 | 0.00 | 0.00 | 27 | 1017.0 |
| 20260501233601 | 67 | 306 | 3.5 | 13.0 | 0.00 | 0.00 | 0.00 | 27 | 1017.0 |
| 20260501233402 | 67 | 304 | 5.2 | 13.0 | 0.00 | 0.00 | 0.00 | 27 | 1017.0 |
| 20260501233202 | 67 | 299 | 4.3 | 13.0 | 0.00 | 0.00 | 0.00 | 28 | 1017.0 |
| 20260501232802 | 67 | 279 | 4.3 | 7.8 | 0.00 | 0.00 | 0.00 | 27 | 1017.0 |
| 20260501232602 | 67 | 291 | 4.3 | 10.4 | 0.00 | 0.00 | 0.00 | 28 | 1017.0 |
| 20260501232401 | 67 | 259 | 4.3 | 10.4 | 0.00 | 0.00 | 0.00 | 28 | 1017.0 |
| 20260501232202 | 66 | 343 | 4.3 | 10.4 | 0.00 | 0.00 | 0.00 | 28 | 1017.0 |
| 20260501232002 | 66 | 327 | 4.3 | 10.4 | 0.00 | 0.00 | 0.00 | 28 | 1017.0 |
| 20260501231801 | 66 | 303 | 5.2 | 10.4 | 0.00 | 0.00 | 0.00 | 29 | 1017.0 |
| 20260501231602 | 66 | 257 | 5.2 | 10.4 | 0.00 | 0.00 | 0.00 | 28 | 1017.0 |
| 20260501231403 | 66 | 298 | 6.1 | 10.4 | 0.00 | 0.00 | 0.00 | 28 | 1017.1 |
| 20260501231201 | 67 | 284 | 6.1 | 12.2 | 0.00 | 0.00 | 0.00 | 28 | 1017.1 |
| 20260501230801 | 66 | 321 | 5.2 | 12.2 | 0.00 | 0.00 | 0.00 | 28 | 1017.1 |
| 20260501230601 | 66 | 301 | 6.1 | 13.9 | 0.00 | 0.00 | 0.00 | 27 | 1017.1 |
| 20260501230402 | 66 | 298 | 6.1 | 13.9 | 0.00 | 0.00 | 0.00 | 28 | 1017.1 |
| 20260501230004 | 66 | 272 | 6.1 | 13.9 | 0.00 | 0.00 | 0.00 | 26 | 1017.2 |
| 20260501225602 | 67 | 327 | 4.3 | 10.4 | 0.00 | 0.00 | 0.00 | 27 | 1017.1 |
| 20260501225402 | 67 | 259 | 3.5 | 10.4 | 0.00 | 0.00 | 0.00 | 29 | 1017.1 |
| 20260501225202 | 66 | 334 | 4.3 | 10.4 | 0.00 | 0.00 | 0.00 | 28 | 1017.2 |
| 20260501224801 | 66 | 300 | 4.3 | 10.4 | 0.00 | 0.00 | 0.00 | 28 | 1017.2 |
| 20260501224601 | 66 | 288 | 5.2 | 10.4 | 0.00 | 0.00 | 0.00 | 27 | 1017.1 |
| 20260501224403 | 66 | 249 | 7.0 | 11.3 | 0.00 | 0.00 | 0.00 | 28 | 1017.2 |
| 20260501224203 | 66 | 313 | 6.1 | 11.3 | 0.00 | 0.00 | 0.00 | 28 | 1017.2 |
| 20260501224002 | 67 | 298 | 3.5 | 11.3 | 0.00 | 0.00 | 0.00 | 27 | 1017.2 |
| 20260501223802 | 66 | 277 | 3.5 | 11.3 | 0.00 | 0.00 | 0.00 | 26 | 1017.3 |
| 20260501223401 | 66 | 338 | 5.2 | 13.9 | 0.00 | 0.00 | 0.00 | 27 | 1017.4 |
| 20260501223202 | 66 | 272 | 6.1 | 13.9 | 0.00 | 0.00 | 0.00 | 28 | 1017.3 |
| 20260501223001 | 66 | 289 | 7.8 | 13.9 | 0.00 | 0.00 | 0.00 | 27 | 1017.3 |
| 20260501222802 | 66 | 278 | 6.1 | 10.4 | 0.00 | 0.00 | 0.00 | 27 | 1017.4 |
| 20260501222602 | 66 | 242 | 5.2 | 10.4 | 0.00 | 0.00 | 0.00 | 27 | 1017.5 |
| 20260501222201 | 67 | 303 | 4.3 | 10.4 | 0.00 | 0.00 | 0.00 | 27 | 1017.6 |
| 20260501222002 | 66 | 360 | 3.5 | 10.4 | 0.00 | 0.00 | 0.00 | 29 | 1017.6 |
| 20260501221802 | 66 | 315 | 5.2 | 11.3 | 0.00 | 0.00 | 0.00 | 28 | 1017.5 |
| 20260501221602 | 66 | 336 | 7.0 | 11.3 | 0.00 | 0.00 | 0.00 | 29 | 1017.6 |
| 20260501221402 | 66 | 313 | 6.1 | 12.2 | 0.00 | 0.00 | 0.00 | 27 | 1017.5 |
| 20260501221201 | 66 | 321 | 6.1 | 12.2 | 0.00 | 0.00 | 0.00 | 27 | 1017.6 |
| 20260501221002 | 66 | 294 | 5.2 | 12.2 | 0.00 | 0.00 | 0.00 | 27 | 1017.6 |
| 20260501220801 | 66 | 292 | 6.1 | 12.2 | 0.00 | 0.00 | 0.00 | 28 | 1017.6 |
| 20260501220602 | 66 | 317 | 6.1 | 12.2 | 0.00 | 0.00 | 0.00 | 27 | 1017.6 |
| 20260501220402 | 66 | 322 | 5.2 | 11.3 | 0.00 | 0.00 | 0.00 | 27 | 1017.6 |
| 20260501220202 | 67 | 278 | 4.3 | 11.3 | 0.00 | 0.00 | 0.00 | 26 | 1017.7 |
| 20260501215602 | 66 | 298 | 3.5 | 13.0 | 0.00 | 0.00 | 0.00 | 28 | 1017.7 |
| 20260501215401 | 66 | 351 | 6.1 | 13.0 | 0.00 | 0.00 | 0.00 | 28 | 1017.7 |
| 20260501215201 | 65 | 281 | 4.3 | 13.0 | 0.00 | 0.00 | 0.00 | 29 | 1017.7 |
| 20260501214802 | 65 | 281 | 8.7 | 13.0 | 0.00 | 0.00 | 0.00 | 28 | 1017.8 |
| 20260501214602 | 66 | 296 | 7.0 | 12.2 | 0.00 | 0.00 | 0.00 | 28 | 1017.8 |
| 20260501214402 | 66 | 340 | 5.2 | 12.2 | 0.00 | 0.00 | 0.00 | 29 | 1017.7 |
| 20260501214202 | 66 | 309 | 4.3 | 13.0 | 0.00 | 0.00 | 0.00 | 29 | 1017.8 |
| 20260501214002 | 66 | 281 | 7.0 | 13.0 | 0.00 | 0.00 | 0.00 | 30 | 1017.8 |
| 20260501213601 | 65 | 294 | 7.0 | 13.0 | 0.00 | 0.00 | 0.00 | 28 | 1017.9 |
| 20260501213402 | 66 | 287 | 7.8 | 12.2 | 0.00 | 0.00 | 0.00 | 30 | 1017.9 |
| 20260501213202 | 65 | 278 | 4.3 | 12.2 | 0.00 | 0.00 | 0.00 | 31 | 1017.8 |
| 20260501213002 | 65 | 313 | 7.0 | 12.2 | 0.00 | 0.00 | 0.00 | 30 | 1017.9 |
| 20260501212802 | 65 | 288 | 7.0 | 12.2 | 0.00 | 0.00 | 0.00 | 28 | 1017.9 |
| 20260501212602 | 65 | 306 | 7.8 | 12.2 | 0.00 | 0.00 | 0.00 | 29 | 1017.9 |
| 20260501212401 | 65 | 276 | 6.1 | 9.6 | 0.00 | 0.00 | 0.00 | 29 | 1018.0 |
| 20260501212201 | 66 | 300 | 6.1 | 9.6 | 0.00 | 0.00 | 0.00 | 27 | 1018.0 |
| 20260501212001 | 66 | 231 | 4.3 | 10.4 | 0.00 | 0.00 | 0.00 | 29 | 1018.0 |
| 20260501211802 | 66 | 283 | 4.3 | 13.9 | 0.00 | 0.00 | 0.00 | 30 | 1018.0 |
| 20260501211601 | 65 | 257 | 4.3 | 13.9 | 0.00 | 0.00 | 0.00 | 30 | 1017.9 |
| 20260501211402 | 66 | 263 | 6.1 | 13.9 | 0.00 | 0.00 | 0.00 | 30 | 1018.0 |
| 20260501210802 | 65 | 289 | 6.1 | 12.2 | 0.00 | 0.00 | 0.00 | 29 | 1018.0 |
| 20260501210601 | 66 | 304 | 6.1 | 12.2 | 0.00 | 0.00 | 0.00 | 27 | 1018.0 |
| 20260501210201 | 65 | 308 | 7.0 | 12.2 | 0.00 | 0.00 | 0.00 | 29 | 1018.0 |
| 20260501210001 | 65 | 257 | 6.1 | 12.2 | 0.00 | 0.00 | 0.00 | 29 | 1018.0 |
| 20260501205800 | 65 | 306 | 6.1 | 12.2 | 0.00 | 0.00 | 0.00 | 29 | 1018.1 |
| 20260501205400 | 65 | 254 | 6.1 | 12.2 | 0.00 | 0.00 | 0.00 | 30 | 1018.0 |
| 20260501205200 | 65 | 253 | 7.0 | 12.2 | 0.00 | 0.00 | 0.00 | 28 | 1018.1 |
| 20260501205001 | 66 | 261 | 6.1 | 11.3 | 0.00 | 0.00 | 0.00 | 28 | 1018.1 |
| 20260501204600 | 66 | 263 | 4.3 | 10.4 | 0.00 | 0.00 | 0.00 | 28 | 1018.1 |
| 20260501204401 | 66 | 277 | 4.3 | 10.4 | 0.00 | 0.00 | 0.00 | 28 | 1018.1 |
| 20260501204201 | 66 | 237 | 4.3 | 12.2 | 0.00 | 0.00 | 0.00 | 28 | 1018.2 |
| 20260501204001 | 66 | 287 | 5.2 | 12.2 | 0.00 | 0.00 | 0.00 | 29 | 1018.2 |
| 20260501203801 | 65 | 277 | 3.5 | 12.2 | 0.00 | 0.00 | 0.00 | 30 | 1018.2 |
| 20260501203600 | 65 | 278 | 5.2 | 12.2 | 0.00 | 0.00 | 0.00 | 28 | 1018.2 |
| 20260501203401 | 65 | 248 | 6.1 | 12.2 | 0.00 | 0.00 | 0.00 | 28 | 1018.2 |
| 20260501203202 | 65 | 290 | 4.3 | 9.6 | 0.00 | 0.00 | 0.00 | 27 | 1018.1 |
| 20260501203001 | 66 | 302 | 4.3 | 9.6 | 0.00 | 0.00 | 0.00 | 28 | 1018.1 |
| 20260501202801 | 66 | 325 | 4.3 | 9.6 | 0.00 | 0.00 | 0.00 | 29 | 1018.2 |
| 20260501202401 | 66 | 290 | 2.6 | 9.6 | 0.00 | 0.00 | 0.00 | 31 | 1018.1 |
| 20260501202201 | 66 | 292 | 3.5 | 9.6 | 0.00 | 0.00 | 0.00 | 31 | 1018.1 |
| 20260501202001 | 66 | 279 | 3.5 | 9.6 | 0.00 | 0.00 | 0.00 | 29 | 1018.2 |
| 20260501201800 | 65 | 192 | 5.2 | 9.6 | 0.00 | 0.00 | 0.00 | 29 | 1018.2 |
| 20260501201600 | 65 | 321 | 3.5 | 9.6 | 0.00 | 0.00 | 0.00 | 30 | 1018.2 |
| 20260501201401 | 65 | 267 | 6.1 | 9.6 | 0.00 | 0.00 | 0.00 | 29 | 1018.1 |
| 20260501201201 | 65 | 302 | 5.2 | 9.6 | 0.00 | 0.00 | 0.00 | 30 | 1018.2 |
| 20260501201000 | 64 | 292 | 3.5 | 9.6 | 0.00 | 0.00 | 0.00 | 31 | 1018.2 |
| 20260501200800 | 65 | 302 | 3.5 | 9.6 | 0.00 | 0.00 | 0.00 | 28 | 1018.2 |
| 20260501200601 | 65 | 330 | 5.2 | 10.4 | 0.00 | 0.00 | 0.00 | 29 | 1018.3 |
| 20260501200401 | 65 | 314 | 5.2 | 10.4 | 0.00 | 0.00 | 0.00 | 31 | 1018.2 |
| 20260501200201 | 65 | 309 | 2.6 | 10.4 | 0.00 | 0.00 | 0.00 | 29 | 1018.2 |
| 20260501200004 | 65 | 239 | 5.2 | 10.4 | 0.00 | 0.00 | 0.00 | 29 | 1018.3 |
| 20260501195603 | 65 | 263 | 4.3 | 8.7 | 0.00 | 0.00 | 0.00 | 29 | 1018.3 |
| 20260501195402 | 65 | 261 | 2.6 | 7.8 | 0.00 | 0.00 | 0.00 | 30 | 1018.3 |
| 20260501195201 | 65 | 252 | 3.5 | 7.8 | 0.00 | 0.00 | 0.00 | 27 | 1018.3 |
| 20260501195002 | 65 | 217 | 2.6 | 7.8 | 0.00 | 0.00 | 0.00 | 29 | 1018.3 |
| 20260501194801 | 64 | 269 | 1.7 | 7.8 | 0.00 | 0.00 | 0.00 | 28 | 1018.4 |
| 20260501194402 | 65 | 315 | 2.6 | 8.7 | 0.00 | 0.00 | 0.00 | 28 | 1018.5 |
| 20260501194203 | 64 | 248 | 2.6 | 8.7 | 0.00 | 0.00 | 0.00 | 30 | 1018.5 |
| 20260501194002 | 64 | 306 | 3.5 | 8.7 | 0.00 | 0.00 | 0.00 | 28 | 1018.5 |
| 20260501193802 | 65 | 265 | 3.5 | 8.7 | 0.00 | 0.00 | 0.00 | 27 | 1018.5 |
| 20260501193604 | 65 | 329 | 1.7 | 7.8 | 0.00 | 0.00 | 0.00 | 29 | 1018.4 |
| 20260501193402 | 64 | 294 | 2.6 | 7.8 | 0.00 | 0.00 | 0.00 | 25 | 1018.5 |
| 20260501193201 | 65 | 299 | 3.5 | 8.7 | 0.00 | 0.00 | 0.00 | 27 | 1018.5 |
| 20260501193002 | 65 | 217 | 3.5 | 8.7 | 0.00 | 0.00 | 0.00 | 28 | 1018.5 |
| 20260501192401 | 65 | 301 | 5.2 | 8.7 | 0.00 | 0.00 | 0.00 | 26 | 1018.5 |
| 20260501192202 | 65 | 285 | 2.6 | 7.0 | 0.00 | 0.00 | 0.00 | 27 | 1018.6 |
| 20260501192002 | 65 | 257 | 2.6 | 7.0 | 0.00 | 0.00 | 0.00 | 29 | 1018.6 |
| 20260501191802 | 65 | 296 | 2.6 | 7.0 | 0.00 | 0.00 | 0.00 | 28 | 1018.6 |
| 20260501191602 | 65 | 207 | 3.5 | 7.0 | 0.00 | 0.00 | 0.00 | 25 | 1018.7 |
| 20260501191402 | 65 | 83 | 2.6 | 8.7 | 0.00 | 0.00 | 0.00 | 27 | 1018.6 |
| 20260501191202 | 65 | 294 | 1.7 | 8.7 | 0.00 | 0.00 | 0.00 | 26 | 1018.7 |
| 20260501191002 | 65 | 265 | 2.6 | 8.7 | 0.00 | 0.00 | 0.00 | 27 | 1018.7 |
| 20260501190603 | 65 | 196 | 3.5 | 7.0 | 0.00 | 0.00 | 0.00 | 26 | 1018.7 |
| 20260501190402 | 65 | 293 | 1.7 | 7.0 | 0.00 | 0.00 | 0.00 | 27 | 1018.7 |
| 20260501190201 | 65 | 190 | 1.7 | 7.0 | 0.00 | 0.00 | 0.00 | 25 | 1018.7 |
| 20260501190003 | 64 | 54 | 0.9 | 7.0 | 0.00 | 0.00 | 0.00 | 27 | 1018.7 |
| 20260501185802 | 64 | 280 | 3.5 | 7.0 | 0.00 | 0.00 | 0.00 | 28 | 1018.8 |
| 20260501185601 | 64 | 294 | 1.7 | 5.2 | 0.00 | 0.00 | 0.00 | 26 | 1018.8 |
| 20260501185402 | 65 | 192 | 1.7 | 5.2 | 0.00 | 0.00 | 0.00 | 25 | 1018.8 |
| 20260501185202 | 65 | 173 | 2.6 | 5.2 | 0.00 | 0.00 | 0.00 | 26 | 1018.9 |
| 20260501185001 | 65 | 195 | 2.6 | 5.2 | 0.00 | 0.00 | 0.00 | 25 | 1018.9 |
| 20260501184802 | 65 | 178 | 1.7 | 5.2 | 0.00 | 0.00 | 0.00 | 22 | 1019.0 |
| 20260501184601 | 65 | 222 | 1.7 | 6.1 | 0.00 | 0.00 | 0.00 | 23 | 1019.0 |
| 20260501184401 | 66 | 190 | 0.9 | 6.1 | 0.00 | 0.00 | 0.00 | 24 | 1018.9 |
| 20260501184203 | 65 | 179 | 1.7 | 6.1 | 0.00 | 0.00 | 0.00 | 23 | 1019.0 |
| 20260501183802 | 64 | 204 | 1.7 | 4.3 | 0.00 | 0.00 | 0.00 | 25 | 1019.0 |
| 20260501183601 | 64 | 319 | 0.0 | 3.5 | 0.00 | 0.00 | 0.00 | 25 | 1019.1 |
| 20260501183402 | 64 | 49 | 0.9 | 3.5 | 0.00 | 0.00 | 0.00 | 24 | 1019.1 |
| 20260501183202 | 63 | 111 | 1.7 | 3.5 | 0.00 | 0.00 | 0.00 | 25 | 1019.1 |
| 20260501182801 | 64 | 76 | 1.7 | 4.3 | 0.00 | 0.00 | 0.00 | 25 | 1019.1 |
| 20260501182601 | 64 | 186 | 1.7 | 6.1 | 0.00 | 0.00 | 0.00 | 26 | 1019.1 |
| 20260501182402 | 63 | 275 | 0.9 | 7.0 | 0.00 | 0.00 | 0.00 | 26 | 1019.0 |
| 20260501182202 | 63 | 326 | 1.7 | 7.0 | 0.00 | 0.00 | 0.00 | 24 | 1019.1 |
| 20260501182002 | 63 | 322 | 2.6 | 7.0 | 0.00 | 0.00 | 0.00 | 24 | 1019.1 |
| 20260501181601 | 63 | 298 | 2.6 | 7.0 | 0.00 | 0.00 | 0.00 | 26 | 1019.1 |
| 20260501181201 | 64 | 272 | 2.6 | 6.1 | 0.00 | 0.00 | 0.00 | 25 | 1019.1 |
| 20260501181002 | 64 | 296 | 0.9 | 4.3 | 0.00 | 0.00 | 0.00 | 26 | 1019.1 |
| 20260501180802 | 64 | 290 | 1.7 | 5.2 | 0.00 | 0.00 | 0.00 | 27 | 1019.2 |
| 20260501180602 | 63 | 213 | 1.7 | 7.0 | 0.00 | 0.00 | 0.00 | 27 | 1019.2 |
| 20260501180202 | 63 | 171 | 2.6 | 7.0 | 0.00 | 0.00 | 0.00 | 28 | 1019.3 |
| 20260501180003 | 63 | 202 | 1.7 | 7.0 | 0.00 | 0.00 | 0.00 | 27 | 1019.2 |
| 20260501175801 | 63 | 167 | 2.6 | 7.0 | 0.00 | 0.00 | 0.00 | 26 | 1019.3 |
| 20260501175602 | 64 | 245 | 1.7 | 4.3 | 0.00 | 0.00 | 0.00 | 27 | 1019.3 |
| 20260501175402 | 64 | 195 | 0.9 | 4.3 | 0.00 | 0.00 | 0.00 | 28 | 1019.4 |
| 20260501175201 | 63 | 214 | 2.6 | 4.3 | 0.00 | 0.00 | 0.00 | 27 | 1019.4 |
| 20260501175002 | 63 | 168 | 2.6 | 5.2 | 0.00 | 0.00 | 0.00 | 26 | 1019.3 |
| 20260501174801 | 63 | 151 | 1.7 | 4.3 | 0.00 | 0.00 | 0.00 | 27 | 1019.4 |
| 20260501174602 | 63 | 210 | 2.6 | 4.3 | 0.00 | 0.00 | 0.00 | 28 | 1019.4 |
| 20260501174202 | 63 | 275 | 1.7 | 4.3 | 0.00 | 0.00 | 0.00 | 27 | 1019.4 |
| 20260501174001 | 63 | 279 | 1.7 | 4.3 | 0.00 | 0.00 | 0.00 | 26 | 1019.4 |
| 20260501173801 | 63 | 267 | 1.7 | 4.3 | 0.00 | 0.00 | 0.00 | 27 | 1019.4 |
| 20260501173601 | 63 | 240 | 1.7 | 4.3 | 0.00 | 0.00 | 0.00 | 28 | 1019.4 |
| 20260501173402 | 63 | 281 | 1.7 | 4.3 | 0.00 | 0.00 | 0.00 | 27 | 1019.4 |
| 20260501173201 | 63 | 227 | 0.9 | 3.5 | 0.00 | 0.00 | 0.00 | 26 | 1019.4 |
| 20260501173001 | 63 | 241 | 0.9 | 3.5 | 0.00 | 0.00 | 0.00 | 29 | 1019.4 |
| 20260501172801 | 63 | 242 | 1.7 | 3.5 | 0.00 | 0.00 | 0.00 | 27 | 1019.4 |
| 20260501172200 | 63 | 173 | 1.7 | 4.3 | 0.00 | 0.00 | 0.00 | 26 | 1019.5 |
| 20260501172000 | 62 | 277 | 0.0 | 4.3 | 0.00 | 0.00 | 0.00 | 27 | 1019.5 |
| 20260501171800 | 61 | 279 | 1.7 | 6.1 | 0.00 | 0.00 | 0.00 | 28 | 1019.5 |
| 20260501171600 | 61 | 293 | 3.5 | 6.1 | 0.00 | 0.00 | 0.00 | 28 | 1019.5 |
| 20260501171200 | 62 | 245 | 1.7 | 6.1 | 0.00 | 0.00 | 0.00 | 30 | 1019.5 |
| 20260501170801 | 60 | 185 | 2.6 | 6.1 | 0.00 | 0.00 | 0.00 | 28 | 1019.6 |
| 20260501170601 | 61 | 186 | 4.3 | 6.1 | 0.00 | 0.00 | 0.00 | 28 | 1019.6 |
| 20260501170401 | 61 | 182 | 3.5 | 6.1 | 0.00 | 0.00 | 0.00 | 28 | 1019.6 |
| 20260501170201 | 61 | 192 | 4.3 | 6.1 | 0.00 | 0.00 | 0.00 | 30 | 1019.5 |
| 20260501170000 | 61 | 197 | 2.6 | 6.1 | 0.00 | 0.00 | 0.00 | 30 | 1019.6 |
| 20260501165800 | 61 | 218 | 2.6 | 6.1 | 0.00 | 0.00 | 0.00 | 30 | 1019.6 |
| 20260501165600 | 60 | 205 | 0.9 | 4.3 | 0.00 | 0.00 | 0.00 | 30 | 1019.6 |
| 20260501165401 | 60 | 178 | 1.7 | 4.3 | 0.00 | 0.00 | 0.00 | 30 | 1019.6 |
| 20260501165201 | 60 | 184 | 0.9 | 4.3 | 0.00 | 0.00 | 0.00 | 29 | 1019.7 |
| 20260501165002 | 61 | 185 | 1.7 | 4.3 | 0.00 | 0.00 | 0.00 | 32 | 1019.6 |
| 20260501164801 | 61 | 132 | 2.6 | 4.3 | 0.00 | 0.00 | 0.00 | 31 | 1019.6 |
| 20260501164602 | 60 | 188 | 1.7 | 5.2 | 0.00 | 0.00 | 0.00 | 29 | 1019.6 |
| 20260501164401 | 60 | 105 | 0.9 | 5.2 | 0.00 | 0.00 | 0.00 | 28 | 1019.6 |
| 20260501164200 | 60 | 343 | 1.7 | 5.2 | 0.00 | 0.00 | 0.00 | 30 | 1019.6 |
| 20260501164000 | 60 | 323 | 1.7 | 4.3 | 0.00 | 0.00 | 0.00 | 29 | 1019.6 |
| 20260501163800 | 60 | 302 | 0.9 | 4.3 | 0.00 | 0.00 | 0.00 | 28 | 1019.6 |
| 20260501163601 | 59 | 302 | 0.9 | 4.3 | 0.00 | 0.00 | 0.00 | 30 | 1019.6 |
| 20260501162800 | 59 | 278 | 2.6 | 6.1 | 0.00 | 0.00 | 0.00 | 31 | 1019.6 |
| 20260501162400 | 59 | 294 | 3.5 | 7.0 | 0.00 | 0.00 | 0.00 | 31 | 1019.6 |